Time;durP1;ratioP1;P1;durP2;ratioP2;P2;SDS_P1;SDS_P2;PMS_P1;PMS_P2;Temp;Humidity;BMP_temperature;BMP_pressure;BME280_temperature;BME280_humidity;BME280_pressure;Samples;Min_cycle;Max_cycle;Signal;HPM_P1;HPM_P2
2021/11/12 00:04:11;;;;;;;4.97;1.30;;;19.90;60.60;;;;;;6191335;23;20174;-83
2021/11/12 00:14:35;;;;;;;4.28;1.35;;;19.80;60.70;;;;;;6197228;23;20248;-83
2021/11/12 00:17:02;;;;;;;4.05;1.52;;;19.90;61.00;;;;;;6193994;23;20126;-83
2021/11/12 00:19:27;;;;;;;4.10;1.45;;;19.90;60.50;;;;;;6168860;23;20153;-83
2021/11/12 00:21:56;;;;;;;5.05;1.70;;;19.80;60.60;;;;;;6193620;23;20577;-83
2021/11/12 00:24:22;;;;;;;2.90;1.38;;;19.80;60.50;;;;;;6193692;23;20177;-83
2021/11/12 00:26:47;;;;;;;3.72;1.48;;;19.80;60.70;;;;;;6194061;23;20138;-83
2021/11/12 00:29:14;;;;;;;3.25;1.50;;;19.90;60.50;;;;;;6194812;23;20141;-83
2021/11/12 00:32:02;;;;;;;4.25;1.38;;;19.90;60.70;;;;;;6194191;23;20138;-83
2021/11/12 00:37:16;;;;;;;4.30;1.35;;;19.80;60.50;;;;;;6196694;23;20225;-83
2021/11/12 00:39:53;;;;;;;5.45;1.50;;;19.80;60.30;;;;;;6196196;23;20150;-83
2021/11/12 00:42:25;;;;;;;5.75;1.38;;;19.80;60.10;;;;;;6196766;23;20134;-83
2021/11/12 00:45:01;;;;;;;4.07;1.55;;;19.90;60.00;;;;;;6195684;23;20264;-83
2021/11/12 00:47:40;;;;;;;3.03;1.20;;;19.80;60.20;;;;;;6197023;23;20141;-83
2021/11/12 00:55:39;;;;;;;5.72;1.50;;;19.80;60.10;;;;;;6200023;23;20146;-83
2021/11/12 00:58:05;;;;;;;3.40;1.30;;;19.80;60.10;;;;;;6195255;23;20540;-82
2021/11/12 01:00:32;;;;;;;3.45;1.38;;;19.80;59.90;;;;;;6194563;23;20141;-83
2021/11/12 01:02:59;;;;;;;1.20;1.08;;;19.80;60.10;;;;;;6170626;23;20168;-83
2021/11/12 01:05:26;;;;;;;2.60;1.38;;;19.80;60.10;;;;;;6194275;23;20131;-83
2021/11/12 01:07:52;;;;;;;5.03;1.75;;;19.80;60.20;;;;;;6219713;23;20554;-83
2021/11/12 01:10:17;;;;;;;5.43;1.40;;;19.80;60.10;;;;;;6195175;23;20189;-83
2021/11/12 01:12:44;;;;;;;3.47;1.40;;;19.80;60.10;;;;;;6196634;23;20626;-83
2021/11/12 01:15:12;;;;;;;2.42;1.48;;;19.80;59.90;;;;;;6172290;23;20185;-83
2021/11/12 01:17:39;;;;;;;2.22;1.42;;;19.80;59.80;;;;;;6196622;23;20233;-83
2021/11/12 01:20:06;;;;;;;3.15;1.20;;;19.80;59.80;;;;;;6196574;23;20209;-83
2021/11/12 01:22:35;;;;;;;4.85;1.50;;;19.80;60.00;;;;;;6171221;23;20237;-83
2021/11/12 01:25:04;;;;;;;3.00;1.45;;;19.80;59.50;;;;;;6195891;23;20586;-83
2021/11/12 01:27:31;;;;;;;4.45;1.50;;;19.80;59.90;;;;;;6196356;23;20154;-83
2021/11/12 01:29:57;;;;;;;3.00;1.30;;;19.80;59.90;;;;;;6171714;23;20229;-83
2021/11/12 01:32:23;;;;;;;3.13;1.20;;;19.80;59.60;;;;;;6195654;23;20150;-83
2021/11/12 01:34:53;;;;;;;3.33;1.48;;;19.80;59.80;;;;;;6195866;23;20162;-83
2021/11/12 01:37:21;;;;;;;2.67;1.30;;;19.70;59.80;;;;;;6196124;23;20578;-83
2021/11/12 01:39:52;;;;;;;4.45;1.33;;;19.70;59.70;;;;;;6196786;23;20177;-83
2021/11/12 01:42:24;;;;;;;3.13;1.15;;;19.80;59.50;;;;;;6197207;23;20558;-83
2021/11/12 01:45:03;;;;;;;4.95;1.30;;;19.70;59.60;;;;;;6195751;23;20162;-83
2021/11/12 01:47:43;;;;;;;2.15;1.27;;;19.80;59.70;;;;;;6173477;23;20178;-83
2021/11/12 01:50:17;;;;;;;1.80;1.15;;;19.80;59.50;;;;;;6198453;23;20137;-83
2021/11/12 01:52:48;;;;;;;3.40;1.30;;;19.80;59.80;;;;;;6197183;23;20131;-83
2021/11/12 01:58:15;;;;;;;2.97;1.30;;;19.70;59.50;;;;;;6200330;23;20130;-83
2021/11/12 02:00:42;;;;;;;3.33;1.40;;;19.70;59.30;;;;;;6174237;23;20473;-83
2021/11/12 02:03:09;;;;;;;3.03;1.50;;;19.70;59.70;;;;;;6196154;23;20249;-83
2021/11/12 02:05:35;;;;;;;4.07;1.45;;;19.70;59.50;;;;;;6196192;23;20550;-83
2021/11/12 02:08:01;;;;;;;3.95;1.20;;;19.70;59.30;;;;;;6170312;23;20599;-83
2021/11/12 02:10:27;;;;;;;2.83;1.30;;;19.80;59.40;;;;;;6188935;23;20202;-83
2021/11/12 02:13:02;;;;;;;2.63;1.48;;;19.80;59.30;;;;;;6165767;23;20486;-83
2021/11/12 02:15:28;;;;;;;1.85;1.15;;;19.70;59.50;;;;;;6191159;23;20159;-83
2021/11/12 02:17:59;;;;;;;4.05;1.40;;;19.70;59.20;;;;;;6191092;23;20158;-83
2021/11/12 02:20:37;;;;;;;3.60;1.25;;;19.80;59.10;;;;;;6165761;23;20205;-83
2021/11/12 02:23:04;;;;;;;3.05;1.23;;;19.80;59.10;;;;;;6191361;23;20131;-83
2021/11/12 02:25:35;;;;;;;3.28;1.30;;;19.80;59.20;;;;;;6190728;23;20138;-83
2021/11/12 02:28:08;;;;;;;3.92;1.52;;;19.70;59.20;;;;;;6166291;23;20230;-83
2021/11/12 02:30:34;;;;;;;3.47;1.27;;;19.70;59.20;;;;;;6190000;23;20131;-83
2021/11/12 02:33:12;;;;;;;3.17;1.30;;;19.70;59.30;;;;;;6165854;23;20182;-83
2021/11/12 02:35:41;;;;;;;5.18;1.42;;;19.70;59.10;;;;;;6190148;23;20145;-83
2021/11/12 02:38:08;;;;;;;2.67;1.48;;;19.70;59.10;;;;;;6190165;23;20131;-83
2021/11/12 02:40:34;;;;;;;2.50;1.42;;;19.70;59.10;;;;;;6165715;23;20153;-83
2021/11/12 02:43:02;;;;;;;3.95;1.52;;;19.70;59.10;;;;;;6165024;23;20147;-83
2021/11/12 02:45:29;;;;;;;2.78;1.35;;;19.70;59.10;;;;;;6164905;23;20209;-83
2021/11/12 02:47:55;;;;;;;1.95;1.20;;;19.80;59.10;;;;;;6189870;23;20131;-83
2021/11/12 02:50:22;;;;;;;6.15;1.52;;;19.70;59.00;;;;;;6189433;23;20138;-83
2021/11/12 02:52:52;;;;;;;2.95;1.40;;;19.70;59.10;;;;;;6189981;23;20145;-83
2021/11/12 02:55:18;;;;;;;4.07;1.35;;;19.70;59.10;;;;;;6190987;23;20178;-83
2021/11/12 02:57:46;;;;;;;2.20;1.17;;;19.80;59.00;;;;;;6165105;23;20157;-83
2021/11/12 03:00:21;;;;;;;2.05;1.20;;;19.70;59.50;;;;;;6189878;23;20131;-83
2021/11/12 03:02:49;;;;;;;2.88;1.35;;;19.70;58.90;;;;;;6165976;23;20154;-83
2021/11/12 03:05:14;;;;;;;4.43;1.50;;;19.70;58.90;;;;;;6165661;23;20170;-83
2021/11/12 03:07:40;;;;;;;2.30;1.20;;;19.70;59.00;;;;;;6189846;23;20135;-83
2021/11/12 03:10:06;;;;;;;4.15;1.70;;;19.70;58.90;;;;;;6188837;23;20194;-83
2021/11/12 03:12:32;;;;;;;4.20;1.48;;;19.70;59.00;;;;;;6189654;23;20229;-83
2021/11/12 03:14:59;;;;;;;4.95;1.40;;;19.70;58.90;;;;;;6165017;23;20178;-83
2021/11/12 03:17:26;;;;;;;2.38;1.30;;;19.70;59.10;;;;;;6189425;23;20135;-83
2021/11/12 03:19:51;;;;;;;2.08;1.50;;;19.70;58.90;;;;;;6189921;23;20131;-83
2021/11/12 03:22:22;;;;;;;2.50;1.05;;;19.70;58.90;;;;;;6189121;23;20154;-83
2021/11/12 03:24:52;;;;;;;6.25;1.75;;;19.70;58.90;;;;;;6188954;23;20130;-83
2021/11/12 03:30:33;;;;;;;2.63;1.25;;;19.70;58.90;;;;;;6190560;23;20214;-83
2021/11/12 04:00:10;;;;;;;1.40;1.10;;;19.70;58.80;;;;;;6168414;23;20146;-83
2021/11/12 04:21:58;;;;;;;1.70;1.00;;;19.60;57.50;;;;;;6192043;23;20700;-83
2021/11/12 05:10:01;;;;;;;2.30;1.00;;;19.60;58.00;;;;;;6199367;23;20190;-82
2021/11/12 05:12:58;;;;;;;1.08;0.93;;;19.60;58.00;;;;;;6221684;23;20157;-83
2021/11/12 05:26:23;;;;;;;1.92;1.02;;;19.60;58.00;;;;;;6197391;23;20142;-83
2021/11/12 05:34:29;;;;;;;2.25;1.17;;;19.60;57.80;;;;;;6195500;23;20172;-83
2021/11/12 05:50:37;;;;;;;1.70;1.20;;;19.60;57.90;;;;;;6197798;23;20134;-83
2021/11/12 05:55:44;;;;;;;1.77;1.02;;;19.60;58.40;;;;;;6196830;23;20150;-83
2021/11/12 05:58:12;;;;;;;2.00;1.33;;;19.60;58.00;;;;;;6169333;23;20159;-83
2021/11/12 06:00:39;;;;;;;2.53;1.10;;;19.60;58.50;;;;;;6169139;23;20146;-83
2021/11/12 06:03:05;;;;;;;1.83;1.02;;;19.60;58.50;;;;;;6194135;23;20177;-83
2021/11/12 06:05:31;;;;;;;3.03;0.98;;;19.60;58.80;;;;;;6193914;23;20131;-83
2021/11/12 06:07:57;;;;;;;2.25;1.13;;;19.60;59.00;;;;;;6194013;23;20168;-83
2021/11/12 06:10:22;;;;;;;3.17;1.15;;;19.60;58.90;;;;;;6188102;23;20187;-83
2021/11/12 06:12:50;;;;;;;1.45;1.00;;;19.60;59.10;;;;;;6188543;23;20150;-83
2021/11/12 06:15:16;;;;;;;1.73;1.20;;;19.60;58.90;;;;;;6163581;23;20178;-83
2021/11/12 06:17:43;;;;;;;2.17;1.10;;;19.70;59.00;;;;;;6163672;23;20504;-82
2021/11/12 06:20:10;;;;;;;2.58;0.98;;;19.70;58.90;;;;;;6188577;23;20139;-83
2021/11/12 06:22:38;;;;;;;1.90;1.20;;;19.60;58.70;;;;;;6188020;23;20135;-83
2021/11/12 06:25:04;;;;;;;2.38;1.30;;;19.70;58.80;;;;;;6189554;23;20131;-83
2021/11/12 06:27:30;;;;;;;2.92;1.13;;;19.70;58.70;;;;;;6164783;23;20145;-83
2021/11/12 06:29:57;;;;;;;1.10;1.00;;;19.60;58.50;;;;;;6190306;23;20139;-83
2021/11/12 06:32:23;;;;;;;1.30;1.00;;;19.60;58.50;;;;;;6189640;23;20162;-83
2021/11/12 06:34:49;;;;;;;1.23;1.10;;;19.70;58.60;;;;;;6189826;23;20158;-83
2021/11/12 06:37:15;;;;;;;6.82;1.10;;;19.70;58.10;;;;;;6190105;23;20131;-83
2021/11/12 06:39:40;;;;;;;1.65;0.82;;;19.70;58.40;;;;;;6189804;23;20218;-83
2021/11/12 06:50:12;;;;;;;1.92;1.10;;;19.80;58.00;;;;;;6189914;23;20562;-83
2021/11/12 06:52:39;;;;;;;1.67;1.00;;;19.70;57.60;;;;;;6166350;23;20146;-84
2021/11/12 06:55:05;;;;;;;1.70;0.98;;;19.80;58.10;;;;;;6189357;23;20174;-83
2021/11/12 06:57:31;;;;;;;1.98;1.10;;;19.80;58.00;;;;;;6191532;23;20135;-83
2021/11/12 06:59:57;;;;;;;1.90;1.05;;;19.80;57.80;;;;;;6190708;23;20135;-83
2021/11/12 07:02:24;;;;;;;3.10;0.93;;;19.80;57.70;;;;;;6191377;23;20135;-83
2021/11/12 07:04:57;;;;;;;3.22;1.20;;;19.80;57.60;;;;;;6166553;23;20163;-83
2021/11/12 07:07:23;;;;;;;1.75;1.00;;;19.80;57.80;;;;;;6192786;23;20161;-84
2021/11/12 07:09:50;;;;;;;2.08;1.08;;;19.80;57.30;;;;;;6167801;23;20221;-83
2021/11/12 07:12:16;;;;;;;1.25;0.98;;;19.80;57.80;;;;;;6192912;23;20177;-83
2021/11/12 07:14:45;;;;;;;1.08;0.90;;;19.70;57.70;;;;;;6192490;23;20614;-83
2021/11/12 07:17:13;;;;;;;1.98;0.98;;;19.80;57.70;;;;;;6192349;23;20134;-83
2021/11/12 07:19:42;;;;;;;2.00;1.10;;;19.80;57.60;;;;;;6194617;23;20131;-84
2021/11/12 07:22:09;;;;;;;1.70;0.90;;;19.80;57.60;;;;;;6196754;23;20193;-83
2021/11/12 07:24:35;;;;;;;2.80;1.10;;;19.80;57.80;;;;;;6195337;23;20161;-83
2021/11/12 07:27:05;;;;;;;2.05;1.02;;;19.80;57.40;;;;;;6169760;23;20234;-83
2021/11/12 07:29:33;;;;;;;1.20;0.95;;;19.80;57.50;;;;;;6170374;23;20147;-83
2021/11/12 07:31:59;;;;;;;1.60;1.08;;;19.90;57.60;;;;;;6169543;23;20154;-83
2021/11/12 07:34:27;;;;;;;2.65;1.13;;;19.90;57.60;;;;;;6193745;23;20198;-83
2021/11/12 07:36:58;;;;;;;2.00;0.90;;;19.80;57.40;;;;;;6191515;23;20131;-83
2021/11/12 07:39:37;;;;;;;2.83;1.13;;;19.80;57.40;;;;;;6167913;23;20556;-83
2021/11/12 07:42:09;;;;;;;3.00;1.05;;;19.90;57.50;;;;;;6168830;23;20463;-83
2021/11/12 07:44:41;;;;;;;1.25;0.88;;;19.90;57.40;;;;;;6169565;23;20155;-82
2021/11/12 07:47:13;;;;;;;2.17;1.30;;;19.90;57.40;;;;;;6191528;23;20131;-83
2021/11/12 07:49:39;;;;;;;2.35;0.88;;;19.90;57.40;;;;;;6191806;23;20585;-84
2021/11/12 07:52:06;;;;;;;1.50;0.95;;;19.90;57.00;;;;;;6193986;23;20247;-83
2021/11/12 07:54:33;;;;;;;1.17;1.00;;;19.90;57.20;;;;;;6194158;23;20218;-83
2021/11/12 07:57:00;;;;;;;1.70;0.90;;;19.90;57.30;;;;;;6192272;23;20138;-83
2021/11/12 07:59:28;;;;;;;2.30;0.90;;;19.90;57.20;;;;;;6168935;23;20151;-83
2021/11/12 08:01:54;;;;;;;2.30;1.27;;;19.90;57.10;;;;;;6168326;23;20150;-83
2021/11/12 08:04:19;;;;;;;2.08;0.95;;;19.90;57.20;;;;;;6190523;23;20135;-83
2021/11/12 08:06:51;;;;;;;1.08;0.90;;;19.90;57.20;;;;;;6192071;23;20178;-83
2021/11/12 08:09:18;;;;;;;2.58;1.00;;;19.90;57.20;;;;;;6192085;23;20158;-83
2021/11/12 08:11:52;;;;;;;2.80;0.90;;;20.00;56.90;;;;;;6167860;23;20202;-83
2021/11/12 08:14:25;;;;;;;1.05;0.85;;;19.90;56.70;;;;;;6170542;23;20245;-83
2021/11/12 08:19:20;;;;;;;2.08;1.17;;;19.90;56.80;;;;;;6196430;23;20135;-83
2021/11/12 08:21:56;;;;;;;1.65;0.93;;;20.00;57.10;;;;;;6172788;23;20146;-83
2021/11/12 08:24:36;;;;;;;1.95;1.05;;;20.00;56.90;;;;;;6196276;23;20153;-83
2021/11/12 08:30:00;;;;;;;0.75;0.73;;;19.90;56.90;;;;;;6196657;23;20143;-83
2021/11/12 08:32:53;;;;;;;1.23;1.00;;;20.00;57.00;;;;;;6194441;23;20130;-83
2021/11/12 08:43:23;;;;;;;1.52;0.90;;;20.00;56.40;;;;;;6193107;23;20130;-82
2021/11/12 08:46:13;;;;;;;1.40;0.80;;;20.00;56.30;;;;;;6168915;23;20177;-83
2021/11/12 08:48:40;;;;;;;1.20;0.90;;;20.00;56.10;;;;;;6195339;23;20177;-84
2021/11/12 08:51:10;;;;;;;1.90;1.10;;;20.00;56.40;;;;;;6195785;23;20147;-83
2021/11/12 08:53:37;;;;;;;0.88;0.60;;;20.00;56.20;;;;;;6195576;23;20124;-84
2021/11/12 08:56:11;;;;;;;1.30;0.90;;;20.00;56.30;;;;;;6194925;23;20131;-83
2021/11/12 08:58:38;;;;;;;1.13;0.90;;;20.00;56.30;;;;;;6171706;23;20577;-85
2021/11/12 09:01:04;;;;;;;1.40;0.82;;;20.00;56.40;;;;;;6172201;23;20143;-83
2021/11/12 09:03:30;;;;;;;1.80;0.88;;;20.00;56.30;;;;;;6197431;23;20138;-83
2021/11/12 09:05:56;;;;;;;2.22;1.10;;;20.00;56.30;;;;;;6172663;23;20176;-84
2021/11/12 09:08:23;;;;;;;1.38;1.10;;;20.00;56.00;;;;;;6194312;23;20186;-84
2021/11/12 09:10:49;;;;;;;1.38;0.75;;;20.00;56.10;;;;;;6196057;23;20190;-84
2021/11/12 09:13:21;;;;;;;1.90;1.00;;;20.10;56.20;;;;;;6172117;23;20153;-83
2021/11/12 09:15:53;;;;;;;1.35;1.00;;;20.10;56.10;;;;;;6172290;23;20185;-83
2021/11/12 09:18:22;;;;;;;1.95;0.80;;;20.00;56.10;;;;;;6196871;23;20151;-84
2021/11/12 09:20:49;;;;;;;3.38;0.90;;;20.00;56.00;;;;;;6171650;23;20151;-83
2021/11/12 09:23:14;;;;;;;0.80;0.65;;;20.10;56.20;;;;;;6195153;23;20138;-83
2021/11/12 09:25:40;;;;;;;1.65;1.08;;;20.00;56.00;;;;;;6185825;23;20155;-84
2021/11/12 09:28:06;;;;;;;1.38;0.98;;;20.00;55.90;;;;;;6184442;23;20242;-83
2021/11/12 09:30:35;;;;;;;2.17;0.85;;;20.10;55.80;;;;;;6185232;23;20135;-83
2021/11/12 09:33:02;;;;;;;1.33;0.90;;;20.10;55.40;;;;;;6184718;23;20131;-83
2021/11/12 09:35:28;;;;;;;0.95;0.85;;;20.10;55.50;;;;;;6183798;23;20177;-83
2021/11/12 09:37:53;;;;;;;1.02;0.73;;;20.10;55.50;;;;;;6184056;23;20469;-83
2021/11/12 09:40:20;;;;;;;1.70;0.88;;;20.10;55.40;;;;;;6184779;23;20593;-84
2021/11/12 09:42:47;;;;;;;1.17;0.90;;;20.10;55.50;;;;;;6160588;23;20146;-83
2021/11/12 09:45:13;;;;;;;1.98;0.95;;;20.10;55.60;;;;;;6184933;23;20158;-84
2021/11/12 09:47:39;;;;;;;2.25;0.80;;;20.10;55.40;;;;;;6184857;23;20590;-84
2021/11/12 09:50:08;;;;;;;2.17;0.80;;;20.10;55.70;;;;;;6187157;23;20218;-83
2021/11/12 09:52:35;;;;;;;0.80;0.70;;;20.10;55.20;;;;;;6186888;23;20198;-83
2021/11/12 09:55:00;;;;;;;0.93;0.82;;;20.10;55.20;;;;;;6186863;23;20510;-83
2021/11/12 09:57:26;;;;;;;0.98;0.65;;;20.10;55.10;;;;;;6161923;23;20151;-83
2021/11/12 09:59:56;;;;;;;1.25;0.70;;;20.10;55.10;;;;;;6187410;23;20131;-84
2021/11/12 10:02:22;;;;;;;1.00;0.82;;;20.10;55.10;;;;;;6189418;23;20134;-83
2021/11/12 10:04:48;;;;;;;1.38;0.93;;;20.10;55.10;;;;;;6184974;23;20486;-83
2021/11/12 10:07:15;;;;;;;1.23;0.80;;;20.10;55.00;;;;;;6185237;23;20520;-83
2021/11/12 10:09:42;;;;;;;1.63;0.90;;;20.10;55.00;;;;;;6133176;23;1288729;-82
2021/11/12 10:12:09;;;;;;;1.25;0.63;;;20.10;55.30;;;;;;6191045;23;20562;-83
2021/11/12 10:14:40;;;;;;;0.88;0.73;;;20.10;54.80;;;;;;6191662;23;20173;-82
2021/11/12 10:17:07;;;;;;;1.63;0.85;;;20.10;55.00;;;;;;6195130;23;20133;-83
2021/11/12 10:19:41;;;;;;;1.00;0.70;;;20.10;54.90;;;;;;6194697;23;20221;-82
2021/11/12 10:22:06;;;;;;;1.23;0.70;;;20.10;55.40;;;;;;6195038;23;20126;-83
2021/11/12 10:24:35;;;;;;;0.70;0.70;;;20.20;54.60;;;;;;6196473;23;20616;-83
2021/11/12 10:27:07;;;;;;;2.05;0.90;;;20.10;54.90;;;;;;6193653;23;20592;-83
2021/11/12 10:29:35;;;;;;;0.80;0.80;;;20.10;54.60;;;;;;6190448;23;20142;-83
2021/11/12 10:32:06;;;;;;;0.90;0.75;;;20.10;54.60;;;;;;6191532;23;20146;-83
2021/11/12 10:34:34;;;;;;;2.47;0.90;;;20.10;54.60;;;;;;6192195;23;20196;-83
2021/11/12 10:37:05;;;;;;;1.85;0.80;;;20.10;54.60;;;;;;6169872;23;20165;-83
2021/11/12 10:39:46;;;;;;;1.08;0.80;;;20.10;54.50;;;;;;6192438;23;20149;-83
2021/11/12 10:42:16;;;;;;;2.28;0.90;;;20.20;54.50;;;;;;6192235;23;20182;-84
2021/11/12 10:44:47;;;;;;;1.35;0.90;;;20.20;54.90;;;;;;6193740;23;20144;-83
2021/11/12 10:47:13;;;;;;;1.65;0.90;;;20.10;54.40;;;;;;6168580;23;20537;-83
2021/11/12 10:49:42;;;;;;;1.52;0.70;;;20.10;55.00;;;;;;6195513;23;20137;-83
2021/11/12 10:52:12;;;;;;;1.40;0.80;;;20.10;54.60;;;;;;6225794;23;20134;-83
2021/11/12 10:55:00;;;;;;;0.93;0.80;;;20.10;54.60;;;;;;6171125;23;20178;-83
2021/11/12 10:57:34;;;;;;;0.80;0.70;;;20.10;55.10;;;;;;6217721;23;20137;-83
2021/11/12 11:00:17;;;;;;;1.02;0.75;;;20.20;54.20;;;;;;6200225;23;20189;-82
2021/11/12 11:03:03;;;;;;;1.20;0.85;;;20.10;54.20;;;;;;6199734;23;20138;-83
2021/11/12 11:05:33;;;;;;;1.58;0.80;;;20.10;54.20;;;;;;6195457;23;20150;-83
2021/11/12 11:08:01;;;;;;;0.88;0.70;;;20.20;54.00;;;;;;6199772;23;20131;-83
2021/11/12 11:10:33;;;;;;;1.55;0.75;;;20.10;53.70;;;;;;6162213;23;20273;-83
2021/11/12 11:13:03;;;;;;;1.17;1.00;;;20.10;53.80;;;;;;6188155;23;20467;-84
2021/11/12 11:15:32;;;;;;;0.68;0.60;;;20.10;53.70;;;;;;6194093;23;20483;-84
2021/11/12 11:18:18;;;;;;;1.35;0.60;;;20.10;53.60;;;;;;6190786;23;20214;-83
2021/11/12 11:20:47;;;;;;;1.00;0.90;;;20.10;53.60;;;;;;6166685;23;20142;-83
2021/11/12 11:23:13;;;;;;;1.70;0.85;;;20.10;54.00;;;;;;6165643;23;20142;-84
2021/11/12 11:25:42;;;;;;;1.65;0.82;;;20.10;53.90;;;;;;6187479;23;20181;-83
2021/11/12 11:28:08;;;;;;;2.20;0.73;;;20.10;53.80;;;;;;6191038;23;20139;-83
2021/11/12 11:30:33;;;;;;;2.63;0.70;;;20.10;54.00;;;;;;6189829;23;20188;-83
2021/11/12 11:33:00;;;;;;;1.02;0.75;;;20.10;53.50;;;;;;6187538;23;20192;-84
2021/11/12 11:35:26;;;;;;;1.25;0.80;;;20.10;53.20;;;;;;6162919;23;20185;-84
2021/11/12 11:37:53;;;;;;;3.00;0.82;;;20.10;52.70;;;;;;6189518;23;20135;-84
2021/11/12 11:40:19;;;;;;;0.98;0.77;;;20.10;53.50;;;;;;6191361;23;20166;-83
2021/11/12 11:42:45;;;;;;;2.08;0.80;;;20.10;53.20;;;;;;6195621;23;20131;-83
2021/11/12 11:45:14;;;;;;;1.08;0.80;;;20.10;52.90;;;;;;6195030;23;20171;-83
2021/11/12 11:47:43;;;;;;;0.55;0.50;;;20.20;53.50;;;;;;6195425;23;20198;-83
2021/11/12 11:50:23;;;;;;;1.20;0.85;;;20.10;53.20;;;;;;6170995;23;20155;-83
2021/11/12 11:52:50;;;;;;;1.10;0.80;;;20.10;53.60;;;;;;6196289;23;20157;-83
2021/11/12 11:55:33;;;;;;;0.75;0.75;;;20.10;53.60;;;;;;6195590;23;20574;-83
2021/11/12 11:58:32;;;;;;;0.95;0.80;;;20.10;53.00;;;;;;6194783;23;20142;-83
2021/11/12 12:01:33;;;;;;;0.68;0.60;;;20.10;53.50;;;;;;6193040;23;20143;-83
2021/11/12 12:04:36;;;;;;;0.73;0.60;;;20.10;53.20;;;;;;6195642;23;20202;-82
2021/11/12 12:07:17;;;;;;;0.98;0.80;;;20.10;53.50;;;;;;6195946;23;20154;-83
2021/11/12 12:09:47;;;;;;;1.33;0.80;;;20.10;53.20;;;;;;6173179;23;20158;-83
2021/11/12 12:12:37;;;;;;;0.90;0.70;;;20.10;53.30;;;;;;6201672;23;20134;-84
2021/11/12 12:15:27;;;;;;;0.90;0.70;;;20.10;53.20;;;;;;6225512;23;20158;-84
2021/11/12 12:18:15;;;;;;;0.73;0.70;;;20.10;53.30;;;;;;6193311;23;20562;-83
2021/11/12 13:20:57;;;;;;;1.10;0.70;;;20.10;53.10;;;;;;6200458;23;20157;-83
2021/11/12 13:23:33;;;;;;;1.30;0.93;;;20.10;52.60;;;;;;6172448;23;20181;-82
2021/11/12 13:26:02;;;;;;;0.85;0.85;;;20.10;52.80;;;;;;6195180;23;20521;-82
2021/11/12 13:28:29;;;;;;;0.90;0.68;;;20.10;52.80;;;;;;6168041;23;20146;-83
2021/11/12 13:31:09;;;;;;;1.17;0.80;;;20.10;52.90;;;;;;6167273;23;20450;-83
2021/11/12 13:33:43;;;;;;;0.88;0.68;;;20.00;52.10;;;;;;6168161;23;20176;-83
2021/11/12 13:36:23;;;;;;;1.00;0.90;;;20.10;52.80;;;;;;6192905;23;20135;-83
2021/11/12 13:38:56;;;;;;;0.90;0.80;;;20.10;52.80;;;;;;6191824;23;20204;-82
2021/11/12 13:41:24;;;;;;;0.90;0.70;;;20.10;52.60;;;;;;6195471;23;20138;-84
2021/11/12 13:43:52;;;;;;;0.73;0.70;;;20.10;52.80;;;;;;6194297;23;20134;-84
2021/11/12 13:46:18;;;;;;;0.70;0.68;;;20.10;53.00;;;;;;6193702;23;20135;-82
2021/11/12 13:48:50;;;;;;;2.00;0.70;;;20.10;53.00;;;;;;6168852;23;20157;-83
2021/11/12 13:51:22;;;;;;;0.95;0.70;;;20.10;53.20;;;;;;6192856;23;20502;-83
2021/11/12 13:53:48;;;;;;;1.08;0.80;;;20.00;53.50;;;;;;6166764;23;20200;-82
2021/11/12 13:56:15;;;;;;;0.70;0.70;;;20.00;53.70;;;;;;6191574;23;20130;-83
2021/11/12 13:58:41;;;;;;;1.13;0.70;;;20.00;53.50;;;;;;6191876;23;20180;-83
2021/11/12 14:01:16;;;;;;;0.57;0.57;;;20.10;53.30;;;;;;6165303;23;20611;-83
2021/11/12 14:03:42;;;;;;;1.00;0.68;;;20.00;53.20;;;;;;6166333;23;20146;-82
2021/11/12 14:06:10;;;;;;;0.82;0.63;;;20.00;53.50;;;;;;6191494;23;20600;-82
2021/11/12 14:08:40;;;;;;;0.85;0.73;;;20.00;53.20;;;;;;6193238;23;20478;-82
2021/11/12 14:11:27;;;;;;;1.67;0.80;;;20.10;52.50;;;;;;6191673;23;20189;-82
2021/11/12 14:14:18;;;;;;;1.40;0.70;;;20.10;52.70;;;;;;6217703;23;20157;-84
2021/11/12 14:16:51;;;;;;;0.70;0.70;;;20.00;52.00;;;;;;6193342;23;20130;-83
2021/11/12 14:20:06;;;;;;;0.65;0.60;;;20.10;52.80;;;;;;6193666;23;20214;-83
2021/11/12 14:27:25;;;;;;;0.60;0.60;;;20.10;53.10;;;;;;6198007;23;20596;-83
2021/11/12 14:30:09;;;;;;;1.33;0.70;;;20.00;53.10;;;;;;6195339;23;20142;-83
2021/11/12 14:35:36;;;;;;;0.60;0.60;;;20.00;53.00;;;;;;6199457;23;20172;-84
2021/11/12 14:43:54;;;;;;;0.82;0.65;;;20.00;52.90;;;;;;6179479;23;20518;-83
2021/11/12 14:46:35;;;;;;;0.70;0.70;;;20.00;52.70;;;;;;6173512;23;20222;-83
2021/11/12 14:49:20;;;;;;;0.68;0.63;;;20.00;53.00;;;;;;6198134;23;20550;-84
2021/11/12 14:52:03;;;;;;;0.70;0.70;;;20.00;53.70;;;;;;6197408;23;20129;-86
2021/11/12 14:54:37;;;;;;;1.38;0.80;;;20.00;53.10;;;;;;6171153;23;20170;-85
2021/11/12 14:57:14;;;;;;;0.80;0.70;;;20.00;53.40;;;;;;6194494;23;20623;-84
2021/11/12 14:59:41;;;;;;;0.85;0.57;;;20.00;53.30;;;;;;6197086;23;20153;-83
2021/11/12 15:02:09;;;;;;;1.00;0.80;;;19.90;53.10;;;;;;6165090;23;20170;-83
2021/11/12 15:04:34;;;;;;;1.05;0.88;;;19.90;53.50;;;;;;6193453;23;20134;-83
2021/11/12 15:07:00;;;;;;;1.88;0.90;;;19.90;54.00;;;;;;6193550;23;20507;-83
2021/11/12 15:09:30;;;;;;;0.60;0.60;;;20.00;53.60;;;;;;6195348;23;20147;-83
2021/11/12 15:11:55;;;;;;;1.42;0.75;;;19.90;53.50;;;;;;6196659;23;20196;-83
2021/11/12 15:14:30;;;;;;;0.63;0.60;;;20.00;53.70;;;;;;6197409;23;20166;-83
2021/11/12 15:16:57;;;;;;;0.70;0.70;;;19.90;53.30;;;;;;6200626;23;20212;-84
2021/11/12 15:19:26;;;;;;;1.02;0.50;;;19.90;53.40;;;;;;6199297;23;20210;-84
2021/11/12 15:22:05;;;;;;;0.95;0.75;;;19.90;53.20;;;;;;6174094;23;20252;-84
2021/11/12 15:27:31;;;;;;;0.60;0.60;;;20.00;53.50;;;;;;6201251;23;20157;-84
2021/11/12 15:30:04;;;;;;;1.00;0.63;;;20.00;53.50;;;;;;6198900;23;20158;-84
2021/11/12 15:32:34;;;;;;;1.50;0.60;;;20.00;53.50;;;;;;6196733;23;20135;-84
2021/11/12 15:37:40;;;;;;;0.98;0.60;;;19.90;53.40;;;;;;6136376;23;20158;-84
2021/11/12 15:43:05;;;;;;;3.83;1.10;;;20.00;53.70;;;;;;6105189;23;20200;-83
2021/11/12 15:48:19;;;;;;;2.30;0.80;;;19.90;53.50;;;;;;6085832;23;20282;-84
2021/11/12 15:54:00;;;;;;;0.85;0.68;;;20.00;53.80;;;;;;6117894;23;20250;-83
2021/11/12 15:56:56;;;;;;;1.50;0.73;;;19.90;53.50;;;;;;6060158;23;20176;-82
2021/11/12 16:02:27;;;;;;;2.20;0.63;;;20.00;53.40;;;;;;5968990;24;20200;-83
2021/11/12 16:05:13;;;;;;;1.08;0.85;;;20.00;53.50;;;;;;5991604;24;20215;-83
2021/11/12 16:07:48;;;;;;;4.25;1.00;;;20.10;53.40;;;;;;6006467;23;20608;-81
2021/11/12 16:13:12;;;;;;;2.42;0.88;;;20.20;53.50;;;;;;6018266;23;20166;-83
2021/11/12 16:16:07;;;;;;;1.13;0.85;;;20.10;53.20;;;;;;5975939;23;20226;-81
2021/11/12 16:18:41;;;;;;;2.15;0.88;;;20.20;53.50;;;;;;5992505;24;20271;-82
2021/11/12 16:21:26;;;;;;;1.08;0.70;;;20.20;53.40;;;;;;5950420;24;20195;-82
2021/11/12 16:24:04;;;;;;;1.98;0.80;;;20.20;53.40;;;;;;5946694;24;20187;-82
2021/11/12 16:26:45;;;;;;;1.05;0.80;;;20.20;53.00;;;;;;5972942;23;20169;-83
2021/11/12 16:32:05;;;;;;;3.42;0.73;;;20.20;53.60;;;;;;5967805;24;20176;-81
2021/11/12 16:34:36;;;;;;;1.50;1.00;;;20.20;53.40;;;;;;5986915;24;20327;-81
2021/11/12 16:37:02;;;;;;;1.63;0.90;;;20.20;53.20;;;;;;5966872;24;20183;-81
2021/11/12 16:39:34;;;;;;;2.08;1.00;;;20.20;53.30;;;;;;5997986;23;20305;-81
2021/11/12 16:47:27;;;;;;;4.10;0.98;;;20.30;53.50;;;;;;5995084;23;20572;-84
2021/11/12 16:50:17;;;;;;;2.42;0.70;;;20.30;53.50;;;;;;5972653;24;20238;-85
2021/11/12 16:55:47;;;;;;;2.90;0.80;;;20.30;53.60;;;;;;5974892;24;20206;-82
2021/11/12 16:58:34;;;;;;;1.80;0.85;;;20.30;53.70;;;;;;5972766;24;20694;-82
2021/11/12 17:01:38;;;;;;;3.38;1.00;;;20.20;53.70;;;;;;5939456;24;20189;-84
2021/11/12 17:04:00;;;;;;;4.43;1.20;;;20.30;54.10;;;;;;5987760;23;20155;-84
2021/11/12 17:06:45;;;;;;;6.85;0.90;;;20.30;54.30;;;;;;6017086;23;20238;-84
2021/11/12 17:09:28;;;;;;;3.90;1.17;;;20.30;54.40;;;;;;5990875;23;20162;-84
2021/11/12 17:12:14;;;;;;;5.00;0.90;;;20.30;54.00;;;;;;5962374;24;20222;-84
2021/11/12 17:14:56;;;;;;;3.80;1.15;;;20.30;54.40;;;;;;5938201;24;20183;-83
2021/11/12 17:47:05;;;;;;;6.63;1.42;;;20.20;54.50;;;;;;6114745;23;20195;-83
2021/11/12 18:02:59;;;;;;;4.15;1.35;;;20.20;54.40;;;;;;6169908;23;20131;-82
2021/11/12 18:05:40;;;;;;;3.40;1.05;;;20.20;53.90;;;;;;6161201;23;20155;-84
2021/11/12 18:20:32;;;;;;;7.07;1.55;;;20.30;55.10;;;;;;6146019;23;20138;-82
2021/11/12 21:45:52;;;;;;;3.20;1.40;;;19.70;59.80;;;;;;6199608;23;20145;-83
2021/11/12 21:48:18;;;;;;;4.47;1.70;;;19.70;59.90;;;;;;6199737;23;20134;-84
2021/11/12 21:50:44;;;;;;;3.67;1.40;;;19.60;59.50;;;;;;6197594;23;20203;-83
2021/11/12 21:53:10;;;;;;;5.00;1.58;;;19.70;59.40;;;;;;6197861;23;20135;-83
2021/11/12 21:55:37;;;;;;;4.95;1.60;;;19.60;59.80;;;;;;6197359;23;20265;-83
2021/11/12 21:58:05;;;;;;;6.75;1.67;;;19.60;60.90;;;;;;6172221;23;20150;-83
2021/11/12 22:00:31;;;;;;;2.28;1.20;;;19.60;61.00;;;;;;6171899;23;20192;-83
2021/11/12 22:02:58;;;;;;;2.72;1.70;;;19.70;61.00;;;;;;6172497;23;20146;-83